createdAt,value
2018-10-02T00:02:19.092Z,99.90
2018-10-02T00:04:49.849Z,99.90
2018-10-02T00:07:20.542Z,99.90
2018-10-02T00:09:51.527Z,99.90
2018-10-02T00:12:27.119Z,99.90
2018-10-02T00:14:58.238Z,99.90
2018-10-02T00:17:29.034Z,99.90
2018-10-02T00:19:59.890Z,99.90
2018-10-02T00:22:30.713Z,99.90
2018-10-02T00:25:02.777Z,99.90
2018-10-02T00:27:33.696Z,99.90
2018-10-02T00:30:04.666Z,99.90
2018-10-02T00:32:35.412Z,99.90
2018-10-02T00:35:06.577Z,99.90
2018-10-02T00:37:37.247Z,99.90
2018-10-02T00:40:08.027Z,99.90
2018-10-02T00:42:38.991Z,99.90
2018-10-02T00:45:10.188Z,99.90
2018-10-02T00:47:40.988Z,99.90
2018-10-02T00:50:11.761Z,99.90
2018-10-02T00:52:42.835Z,99.90
2018-10-02T00:55:13.833Z,99.90
2018-10-02T00:57:44.918Z,99.90
2018-10-02T01:00:15.802Z,99.90
2018-10-02T01:02:46.421Z,99.90
2018-10-02T01:05:17.103Z,99.90
2018-10-02T01:07:47.870Z,99.90
2018-10-02T01:10:18.384Z,99.90
2018-10-02T01:12:49.405Z,99.90
2018-10-02T01:15:19.991Z,99.90
2018-10-02T01:17:51.099Z,99.90
2018-10-02T01:20:21.617Z,99.90
2018-10-02T01:22:52.139Z,99.90
2018-10-02T01:25:23.464Z,99.90
2018-10-02T01:27:54.242Z,99.90
2018-10-02T01:30:25.297Z,99.90
2018-10-02T01:32:55.908Z,99.90
2018-10-02T01:35:26.373Z,99.90
2018-10-02T01:37:57.091Z,99.90
2018-10-02T01:40:27.581Z,99.90
2018-10-02T01:42:58.232Z,99.90
2018-10-02T01:45:28.703Z,99.90
2018-10-02T01:47:59.371Z,99.90
2018-10-02T01:50:30.040Z,99.90
2018-10-02T01:53:00.531Z,99.90
2018-10-02T01:55:31.109Z,99.90
2018-10-02T01:58:01.889Z,99.90
2018-10-02T02:00:32.567Z,99.90
2018-10-02T02:03:03.405Z,99.90
2018-10-02T02:05:34.065Z,99.90
2018-10-02T02:08:05.148Z,99.90
2018-10-02T02:10:35.853Z,99.90
2018-10-02T02:13:06.933Z,99.90
2018-10-02T02:15:37.961Z,99.90
2018-10-02T02:18:08.997Z,99.90
2018-10-02T02:20:39.631Z,99.90
2018-10-02T02:23:10.151Z,99.90
2018-10-02T02:25:40.672Z,99.90
2018-10-02T02:28:11.140Z,99.90
2018-10-02T02:30:42.508Z,99.90
2018-10-02T02:33:13.066Z,99.90
2018-10-02T02:35:43.738Z,99.90
2018-10-02T02:38:14.423Z,99.90
2018-10-02T02:40:45.308Z,99.90
2018-10-02T02:43:16.100Z,99.90
2018-10-02T02:45:47.067Z,99.90
2018-10-02T02:48:22.972Z,99.90
2018-10-02T02:50:58.495Z,99.90
2018-10-02T02:53:29.301Z,99.90
2018-10-02T02:55:59.913Z,99.90
2018-10-02T02:58:30.608Z,99.90
2018-10-02T03:01:01.120Z,99.90
2018-10-02T03:03:32.177Z,99.90
2018-10-02T03:06:02.968Z,99.90
2018-10-02T03:08:33.454Z,99.90
2018-10-02T03:11:04.343Z,99.90
2018-10-02T03:13:36.023Z,99.90
2018-10-02T03:16:08.503Z,99.90
2018-10-02T03:18:39.658Z,99.90
2018-10-02T03:21:10.495Z,99.90
2018-10-02T03:23:41.382Z,99.90
2018-10-02T03:26:11.970Z,99.90
2018-10-02T03:28:43.660Z,99.90
2018-10-02T03:31:14.718Z,99.90
2018-10-02T03:33:45.757Z,99.90
2018-10-02T03:36:17.257Z,99.90
2018-10-02T03:38:48.458Z,99.90
2018-10-02T03:41:19.383Z,99.90
2018-10-02T03:43:51.417Z,99.90
2018-10-02T03:46:22.516Z,99.90
2018-10-02T03:48:53.181Z,99.90
2018-10-02T03:51:23.799Z,99.90
2018-10-02T03:53:54.200Z,99.90
2018-10-02T03:56:24.830Z,99.90
2018-10-02T03:58:56.691Z,99.90
2018-10-02T04:01:27.456Z,99.90
2018-10-02T04:03:58.582Z,99.90
2018-10-02T04:06:29.288Z,99.90
2018-10-02T04:08:59.942Z,99.90
2018-10-02T04:11:31.538Z,99.90
2018-10-02T04:14:02.276Z,99.90
2018-10-02T04:16:33.083Z,99.90
2018-10-02T04:19:03.724Z,99.90
2018-10-02T04:21:36.397Z,99.90
2018-10-02T04:24:08.185Z,99.90
2018-10-02T04:26:39.103Z,99.90
2018-10-02T04:29:09.660Z,99.90
2018-10-02T04:31:40.226Z,99.90
2018-10-02T04:34:10.951Z,99.90
2018-10-02T04:36:41.579Z,99.90
2018-10-02T04:39:12.147Z,99.90
2018-10-02T04:41:42.664Z,99.90
2018-10-02T04:44:13.330Z,99.90
2018-10-02T04:46:44.242Z,99.90
2018-10-02T04:49:15.058Z,99.90
2018-10-02T04:51:45.669Z,99.90
2018-10-02T04:54:16.310Z,99.90
2018-10-02T04:56:47.351Z,99.90
2018-10-02T04:59:17.859Z,99.90
2018-10-02T05:01:48.482Z,99.90
2018-10-02T05:04:19.011Z,99.90
2018-10-02T05:06:50.265Z,99.90
2018-10-02T05:09:20.921Z,99.90
2018-10-02T05:11:52.002Z,99.90
2018-10-02T05:14:22.965Z,99.90
2018-10-02T05:16:57.454Z,99.90
2018-10-02T05:19:29.009Z,99.90
2018-10-02T05:22:00.954Z,99.90
2018-10-02T05:24:32.438Z,99.90
2018-10-02T05:27:03.123Z,99.90
2018-10-02T05:29:34.152Z,99.90
2018-10-02T05:32:04.760Z,99.90
2018-10-02T05:34:35.713Z,99.90
2018-10-02T05:37:06.243Z,99.90
2018-10-02T05:39:39.340Z,99.90
2018-10-02T05:42:26.469Z,99.90
2018-10-02T05:44:57.535Z,99.90
2018-10-02T05:47:28.398Z,99.90
2018-10-02T05:49:59.011Z,99.90
2018-10-02T05:52:29.848Z,99.90
2018-10-02T05:55:00.983Z,99.90
2018-10-02T05:57:32.639Z,99.90
2018-10-02T06:00:03.312Z,99.90
2018-10-02T06:02:33.924Z,99.90
2018-10-02T06:05:04.784Z,99.90
2018-10-02T06:07:35.941Z,99.90
2018-10-02T06:10:06.574Z,99.90
2018-10-02T06:12:37.052Z,99.90
2018-10-02T06:15:07.782Z,99.90
2018-10-02T06:17:38.245Z,99.90
2018-10-02T06:20:08.939Z,99.90
2018-10-02T06:22:39.517Z,99.90
2018-10-02T06:25:10.347Z,99.90
2018-10-02T06:27:41.022Z,99.90
2018-10-02T06:30:12.083Z,99.90
2018-10-02T06:32:42.482Z,99.90
2018-10-02T06:35:12.923Z,99.90
2018-10-02T06:37:43.524Z,99.90
2018-10-02T06:40:14.309Z,99.90
2018-10-02T06:42:44.899Z,99.90
2018-10-02T06:45:15.603Z,99.90
2018-10-02T06:47:46.390Z,99.90
2018-10-02T06:50:16.963Z,99.90
2018-10-02T06:52:47.826Z,99.90
2018-10-02T06:55:18.117Z,99.90
2018-10-02T06:57:48.941Z,99.90
2018-10-02T07:00:19.553Z,99.90
2018-10-02T07:02:50.056Z,99.90
2018-10-02T07:05:21.665Z,99.90
2018-10-02T07:07:52.626Z,99.90
2018-10-02T07:10:23.660Z,99.90
2018-10-02T07:12:54.610Z,99.90
2018-10-02T07:15:25.874Z,99.90
2018-10-02T07:17:56.712Z,99.90
2018-10-02T07:20:27.709Z,99.90
2018-10-02T07:22:58.560Z,99.90
2018-10-02T07:25:29.259Z,99.90
2018-10-02T07:28:00.408Z,99.90
2018-10-02T07:30:31.225Z,99.90
2018-10-02T07:33:02.234Z,99.90
2018-10-02T07:35:33.290Z,99.90
2018-10-02T07:38:04.135Z,99.90
2018-10-02T07:40:35.064Z,99.90
2018-10-02T07:43:06.032Z,99.90
2018-10-02T07:45:37.032Z,99.90
2018-10-02T07:48:07.668Z,99.90
2018-10-02T07:50:38.470Z,99.90
2018-10-02T07:53:09.235Z,99.90
2018-10-02T07:55:40.461Z,99.90
2018-10-02T07:58:11.052Z,99.90
2018-10-02T08:00:41.853Z,99.90
2018-10-02T08:03:12.635Z,99.50
2018-10-02T08:05:43.555Z,98.40
2018-10-02T08:08:14.046Z,97.60
2018-10-02T08:10:44.675Z,95.40
2018-10-02T08:13:15.350Z,94.10
2018-10-02T08:15:46.125Z,94.30
2018-10-02T08:18:16.597Z,94.50
2018-10-02T08:20:47.303Z,93.80
2018-10-02T08:23:17.910Z,91.80
2018-10-02T08:25:49.002Z,90.90
2018-10-02T08:28:21.183Z,91.70
2018-10-02T08:30:51.704Z,90.50
2018-10-02T08:33:22.165Z,85.50
2018-10-02T08:35:52.977Z,86.60
2018-10-02T08:38:23.553Z,83.10
2018-10-02T08:40:54.312Z,84.60
2018-10-02T08:43:24.785Z,81.10
2018-10-02T08:45:55.264Z,79.70
2018-10-02T08:48:25.945Z,77.70
2018-10-02T08:50:56.675Z,78.10
2018-10-02T08:53:27.468Z,77.90
2018-10-02T08:55:58.182Z,76.20
2018-10-02T08:58:28.650Z,77.90
2018-10-02T09:00:59.443Z,76.30
2018-10-02T09:03:29.953Z,76.20
2018-10-02T09:06:00.334Z,75.30
2018-10-02T09:08:30.979Z,72.60
2018-10-02T09:11:01.590Z,71.50
2018-10-02T09:13:32.146Z,71.00
2018-10-02T09:16:02.961Z,70.20
2018-10-02T09:18:33.577Z,70.70
2018-10-02T09:21:04.964Z,68.10
2018-10-02T09:23:36.378Z,68.00
2018-10-02T09:26:07.630Z,67.20
2018-10-02T09:28:39.951Z,66.80
2018-10-02T09:31:15.371Z,65.90
2018-10-02T09:33:51.107Z,65.40
2018-10-02T09:36:26.640Z,65.50
2018-10-02T09:39:02.020Z,67.00
2018-10-02T09:41:38.219Z,67.60
2018-10-02T09:44:08.919Z,67.50
2018-10-02T09:46:39.807Z,66.90
2018-10-02T09:49:10.951Z,66.10
2018-10-02T09:51:41.654Z,64.90
2018-10-02T09:54:12.053Z,64.10
2018-10-02T09:56:45.100Z,64.40
2018-10-02T09:59:16.525Z,63.90
2018-10-02T10:01:51.823Z,63.60
2018-10-02T10:04:22.442Z,63.20
2018-10-02T10:06:53.055Z,64.10
2018-10-02T10:09:23.487Z,64.80
2018-10-02T10:11:53.977Z,64.30
2018-10-02T10:14:24.318Z,64.10
2018-10-02T10:16:54.656Z,63.10
2018-10-02T10:19:25.283Z,63.20
2018-10-02T10:21:55.781Z,62.20
2018-10-02T10:24:27.440Z,60.70
2018-10-02T10:26:57.923Z,59.80
2018-10-02T10:29:28.633Z,59.50
2018-10-02T10:31:59.182Z,60.90
2018-10-02T10:34:30.175Z,63.80
2018-10-02T10:37:01.146Z,64.00
2018-10-02T10:39:32.555Z,68.40
2018-10-02T10:42:04.612Z,72.10
2018-10-02T10:44:35.470Z,71.20
2018-10-02T10:47:06.889Z,72.70
2018-10-02T10:49:37.553Z,74.60
2018-10-02T10:52:08.365Z,76.40
2018-10-02T10:54:39.271Z,78.90
2018-10-02T10:57:09.699Z,76.90
2018-10-02T10:59:40.641Z,78.30
2018-10-02T11:02:11.242Z,78.80
2018-10-02T11:04:41.760Z,80.40
2018-10-02T11:07:12.388Z,81.60
2018-10-02T11:09:43.317Z,82.90
2018-10-02T11:12:13.884Z,83.90
2018-10-02T11:14:44.508Z,83.60
2018-10-02T11:17:15.439Z,81.40
2018-10-02T11:19:46.151Z,81.90
2018-10-02T11:22:17.442Z,82.10
2018-10-02T11:24:48.150Z,83.20
2018-10-02T11:27:18.886Z,80.30
2018-10-02T11:29:50.180Z,83.20
2018-10-02T11:32:20.839Z,80.50
2018-10-02T11:34:51.454Z,79.00
2018-10-02T11:37:22.152Z,77.30
2018-10-02T11:39:53.037Z,78.90
2018-10-02T11:42:23.729Z,79.30
2018-10-02T11:44:54.533Z,75.90
2018-10-02T11:47:25.016Z,75.40
2018-10-02T11:49:55.635Z,75.30
2018-10-02T11:52:26.069Z,75.80
2018-10-02T11:54:56.588Z,73.60
2018-10-02T11:57:27.328Z,73.80
2018-10-02T11:59:57.872Z,71.80
2018-10-02T12:02:29.351Z,72.90
2018-10-02T12:05:00.449Z,73.20
2018-10-02T12:07:31.241Z,70.70
2018-10-02T12:10:02.828Z,69.00
2018-10-02T12:12:34.065Z,69.00
2018-10-02T12:15:04.929Z,69.30
2018-10-02T12:17:35.765Z,68.50
2018-10-02T12:20:06.960Z,66.60
2018-10-02T12:22:38.168Z,62.60
2018-10-02T12:25:08.700Z,62.60
2018-10-02T12:27:39.231Z,61.60
2018-10-02T12:30:09.887Z,61.60
2018-10-02T12:32:40.466Z,60.60
2018-10-02T12:35:11.402Z,58.90
2018-10-02T12:37:42.303Z,58.80
2018-10-02T12:40:12.983Z,57.20
2018-10-02T12:42:43.822Z,57.70
2018-10-02T12:45:14.359Z,57.70
2018-10-02T12:47:45.202Z,56.50
2018-10-02T12:50:15.880Z,55.80
2018-10-02T12:52:46.724Z,55.60
2018-10-02T12:55:16.869Z,56.60
2018-10-02T12:57:47.433Z,58.60
2018-10-02T13:00:17.890Z,58.90
2018-10-02T13:02:48.346Z,62.20
2018-10-02T13:05:19.141Z,61.80
2018-10-02T13:07:49.717Z,62.90
2018-10-02T13:10:21.493Z,64.90
2018-10-02T13:12:51.913Z,64.20
2018-10-02T13:15:22.434Z,64.40
2018-10-02T13:17:52.827Z,66.30
2018-10-02T13:20:23.454Z,65.70
2018-10-02T13:22:54.199Z,67.00
2018-10-02T13:25:24.870Z,67.70
2018-10-02T13:27:55.318Z,68.70
2018-10-02T13:30:25.807Z,69.50
2018-10-02T13:32:56.370Z,68.00
2018-10-02T13:35:26.896Z,69.30
2018-10-02T13:37:57.365Z,68.50
2018-10-02T13:40:28.022Z,69.30
2018-10-02T13:42:58.603Z,68.30
2018-10-02T13:45:29.142Z,69.30
2018-10-02T13:47:59.684Z,69.10
2018-10-02T13:50:30.323Z,69.10
2018-10-02T13:53:00.939Z,70.20
2018-10-02T13:55:32.680Z,71.80
2018-10-02T13:58:04.094Z,71.90
2018-10-02T14:00:35.291Z,71.80
2018-10-02T14:03:06.075Z,72.40
2018-10-02T14:05:36.963Z,73.00
2018-10-02T14:08:07.737Z,73.90
2018-10-02T14:10:38.748Z,73.90
2018-10-02T14:13:09.716Z,75.70
2018-10-02T14:15:40.574Z,79.10
2018-10-02T14:18:11.505Z,81.30
2018-10-02T14:20:42.486Z,80.20
2018-10-02T14:23:13.327Z,81.60
2018-10-02T14:25:43.755Z,80.90
2018-10-02T14:28:14.421Z,82.50
2018-10-02T14:30:44.809Z,82.60
2018-10-02T14:33:15.244Z,81.90
2018-10-02T14:35:47.036Z,82.40
2018-10-02T14:38:18.050Z,81.70
2018-10-02T14:40:48.590Z,82.40
2018-10-02T14:43:19.154Z,82.00
2018-10-02T14:45:49.622Z,81.90
2018-10-02T14:48:20.209Z,81.00
2018-10-02T14:50:50.719Z,81.10
2018-10-02T14:53:21.301Z,81.20
2018-10-02T14:55:51.828Z,80.50
2018-10-02T14:58:22.497Z,80.10
2018-10-02T15:00:53.218Z,80.40
2018-10-02T15:03:23.845Z,81.50
2018-10-02T15:05:54.527Z,80.00
2018-10-02T15:08:25.184Z,80.10
2018-10-02T15:10:55.789Z,80.50
2018-10-02T15:13:27.286Z,79.70
2018-10-02T15:15:58.087Z,78.80
2018-10-02T15:18:28.739Z,79.00
2018-10-02T15:21:00.434Z,78.10
2018-10-02T15:23:33.402Z,78.40
2018-10-02T15:26:04.176Z,79.50
2018-10-02T15:28:36.425Z,79.80
2018-10-02T15:31:07.376Z,79.70
2018-10-02T15:33:38.333Z,79.60
2018-10-02T15:36:09.263Z,78.80
2018-10-02T15:38:40.636Z,78.20
2018-10-02T15:41:11.351Z,76.70
2018-10-02T15:43:42.377Z,76.00
2018-10-02T15:46:12.976Z,76.60
2018-10-02T15:48:43.856Z,76.30
2018-10-02T15:51:14.453Z,76.10
2018-10-02T15:53:45.205Z,78.30
2018-10-02T15:56:15.863Z,78.30
2018-10-02T15:58:46.447Z,77.00
2018-10-02T16:01:17.285Z,77.50
2018-10-02T16:03:47.820Z,78.00
2018-10-02T16:06:18.290Z,78.80
2018-10-02T16:08:48.869Z,79.40
2018-10-02T16:11:20.131Z,80.40
2018-10-02T16:13:50.671Z,81.40
2018-10-02T16:16:21.217Z,83.10
2018-10-02T16:18:51.867Z,84.40
2018-10-02T16:21:22.849Z,85.60
2018-10-02T16:23:53.480Z,86.50
2018-10-02T16:26:24.067Z,88.10
2018-10-02T16:28:54.721Z,89.90
2018-10-02T16:31:25.630Z,90.70
2018-10-02T16:33:56.323Z,91.60
2018-10-02T16:36:26.801Z,92.60
2018-10-02T16:38:57.408Z,94.00
2018-10-02T16:41:28.015Z,94.80
2018-10-02T16:43:58.755Z,95.90
2018-10-02T16:46:29.276Z,97.00
2018-10-02T16:49:00.222Z,98.00
2018-10-02T16:51:31.518Z,99.50
2018-10-02T16:54:03.309Z,99.90
2018-10-02T16:56:34.670Z,99.90
2018-10-02T16:59:05.500Z,99.90
2018-10-02T17:01:36.160Z,99.90
2018-10-02T17:04:06.629Z,99.90
2018-10-02T17:06:39.433Z,99.90
2018-10-02T17:09:10.601Z,99.90
2018-10-02T17:11:41.393Z,99.90
2018-10-02T17:14:12.162Z,99.90
2018-10-02T17:16:43.002Z,99.90
2018-10-02T17:19:13.772Z,99.90
2018-10-02T17:21:44.262Z,99.90
2018-10-02T17:24:14.763Z,99.90
2018-10-02T17:26:45.590Z,99.90
2018-10-02T17:29:16.116Z,99.90
2018-10-02T17:31:46.825Z,99.90
2018-10-02T17:34:17.375Z,99.90
2018-10-02T17:36:47.854Z,99.90
2018-10-02T17:39:18.308Z,99.90
2018-10-02T17:41:49.030Z,99.90
2018-10-02T17:44:20.054Z,99.90
2018-10-02T17:46:50.878Z,99.90
2018-10-02T17:49:21.544Z,99.90
2018-10-02T17:51:53.048Z,99.90
2018-10-02T17:54:25.278Z,99.90
2018-10-02T17:56:56.019Z,99.90
2018-10-02T17:59:26.690Z,99.90
2018-10-02T18:01:57.225Z,99.90
2018-10-02T18:04:31.389Z,99.90
2018-10-02T18:07:02.009Z,99.90
2018-10-02T18:09:32.877Z,99.90
2018-10-02T18:12:04.003Z,99.90
2018-10-02T18:14:35.083Z,99.90
2018-10-02T18:17:06.019Z,99.90
2018-10-02T18:19:36.724Z,99.90
2018-10-02T18:22:07.319Z,99.90
2018-10-02T18:24:38.126Z,99.90
2018-10-02T18:27:08.813Z,99.90
2018-10-02T18:29:39.621Z,99.90
2018-10-02T18:32:10.148Z,99.90
2018-10-02T18:34:40.877Z,99.90
2018-10-02T18:37:11.527Z,99.90
2018-10-02T18:39:46.265Z,99.90
2018-10-02T18:42:16.759Z,99.90
2018-10-02T18:44:47.274Z,99.90
2018-10-02T18:47:17.982Z,99.90
2018-10-02T18:49:48.997Z,99.90
2018-10-02T18:52:19.598Z,99.90
2018-10-02T18:54:50.328Z,99.90
2018-10-02T18:57:20.670Z,99.90
2018-10-02T18:59:51.329Z,99.90
2018-10-02T19:02:22.134Z,99.90
2018-10-02T19:04:52.880Z,99.90
2018-10-02T19:07:24.224Z,99.90
2018-10-02T19:09:54.669Z,99.90
2018-10-02T19:12:25.124Z,99.90
2018-10-02T19:14:55.886Z,99.90
2018-10-02T19:17:26.564Z,99.90
2018-10-02T19:20:07.823Z,99.90
2018-10-02T19:22:38.490Z,99.90
2018-10-02T19:25:14.306Z,99.90
2018-10-02T19:27:44.759Z,99.90
2018-10-02T19:30:21.245Z,99.90
2018-10-02T19:32:51.909Z,99.90
2018-10-02T19:35:22.763Z,99.90
2018-10-02T19:37:58.337Z,99.90
2018-10-02T19:40:29.063Z,99.90
2018-10-02T19:43:00.082Z,99.90
2018-10-02T19:45:35.652Z,99.90
2018-10-02T19:48:06.480Z,99.90
2018-10-02T19:50:38.177Z,99.90
2018-10-02T19:53:09.007Z,99.90
2018-10-02T19:55:39.636Z,99.90
2018-10-02T19:58:10.518Z,99.90
2018-10-02T20:00:41.417Z,99.90
2018-10-02T20:03:12.251Z,99.90
2018-10-02T20:05:42.892Z,99.90
2018-10-02T20:08:13.808Z,99.90
2018-10-02T20:10:44.317Z,99.90
2018-10-02T20:13:15.419Z,99.90
2018-10-02T20:15:46.168Z,99.90
2018-10-02T20:18:17.047Z,99.90
2018-10-02T20:20:47.628Z,99.90
2018-10-02T20:23:18.669Z,99.90
2018-10-02T20:25:49.311Z,99.90
2018-10-02T20:28:19.866Z,99.90
2018-10-02T20:30:51.252Z,99.90
2018-10-02T20:33:22.187Z,99.90
2018-10-02T20:35:53.176Z,99.90
2018-10-02T20:38:23.988Z,99.90
2018-10-02T20:40:54.731Z,99.90
2018-10-02T20:43:25.249Z,99.90
2018-10-02T20:45:56.356Z,99.90
2018-10-02T20:48:27.086Z,99.90
2018-10-02T20:50:58.414Z,99.90
2018-10-02T20:53:29.113Z,99.90
2018-10-02T20:55:59.742Z,99.90
2018-10-02T20:58:30.775Z,99.90
2018-10-02T21:01:01.388Z,99.90
2018-10-02T21:03:32.769Z,99.90
2018-10-02T21:06:03.725Z,99.90
2018-10-02T21:08:34.946Z,99.90
2018-10-02T21:11:05.741Z,99.90
2018-10-02T21:13:36.577Z,99.90
2018-10-02T21:16:07.428Z,99.90
2018-10-02T21:18:38.131Z,99.90
2018-10-02T21:21:08.850Z,99.90
2018-10-02T21:23:39.530Z,99.90
2018-10-02T21:26:10.332Z,99.90
2018-10-02T21:28:41.291Z,99.90
2018-10-02T21:31:12.451Z,99.90
2018-10-02T21:33:43.339Z,99.90
2018-10-02T21:36:14.688Z,99.90
2018-10-02T21:38:45.855Z,99.90
2018-10-02T21:41:17.111Z,99.90
2018-10-02T21:43:48.016Z,99.90
2018-10-02T21:46:19.257Z,99.90
2018-10-02T21:48:50.356Z,99.90
2018-10-02T21:51:21.316Z,99.90
2018-10-02T21:53:52.304Z,99.90
2018-10-02T21:56:23.616Z,99.90
2018-10-02T21:58:54.126Z,99.90
2018-10-02T22:01:28.633Z,99.90
2018-10-02T22:03:59.638Z,99.90
2018-10-02T22:06:30.934Z,99.90
2018-10-02T22:09:01.628Z,99.90
2018-10-02T22:11:32.471Z,99.90
2018-10-02T22:14:03.201Z,99.90
2018-10-02T22:16:34.182Z,99.90
2018-10-02T22:19:04.770Z,99.90
2018-10-02T22:21:35.370Z,99.90
2018-10-02T22:24:06.162Z,99.90
2018-10-02T22:26:36.618Z,99.90
2018-10-02T22:29:07.514Z,99.90
2018-10-02T22:31:37.835Z,99.90
2018-10-02T22:34:08.470Z,99.90
2018-10-02T22:36:39.199Z,99.90
2018-10-02T22:39:11.398Z,99.90
2018-10-02T22:41:43.201Z,99.90
2018-10-02T22:44:14.601Z,99.90
2018-10-02T22:46:45.671Z,99.90
2018-10-02T22:49:16.751Z,99.90
2018-10-02T22:51:47.937Z,99.90
2018-10-02T22:54:18.518Z,99.90
2018-10-02T22:56:49.157Z,99.90
2018-10-02T22:59:19.898Z,99.90
2018-10-02T23:01:50.149Z,99.90
2018-10-02T23:04:21.013Z,99.90
2018-10-02T23:06:52.279Z,99.90
2018-10-02T23:09:22.933Z,99.90
2018-10-02T23:11:53.626Z,99.90
2018-10-02T23:14:24.585Z,99.90
2018-10-02T23:16:55.497Z,99.90
2018-10-02T23:19:26.168Z,99.90
2018-10-02T23:21:56.706Z,99.90
2018-10-02T23:24:27.223Z,99.90
2018-10-02T23:26:58.472Z,99.90
2018-10-02T23:29:28.941Z,99.90
2018-10-02T23:31:59.599Z,99.90
2018-10-02T23:34:30.162Z,99.90
2018-10-02T23:37:01.911Z,99.90
2018-10-02T23:39:32.547Z,99.90
2018-10-02T23:42:03.292Z,99.90
2018-10-02T23:44:34.266Z,99.90
2018-10-02T23:47:05.120Z,99.90
2018-10-02T23:49:35.920Z,99.90
2018-10-02T23:52:06.839Z,99.90
2018-10-02T23:54:37.683Z,99.90
2018-10-02T23:57:08.714Z,99.90
2018-10-02T23:59:39.349Z,99.90
